sensor_id;sensor_type;location;lat;lon;timestamp;pressure;altitude;pressure_sealevel;temperature;humidity
54042;BME280;41156;51.508;5.406;2023-04-01T00:01:36;99032.97;;;9.56;100.00
54042;BME280;41156;51.508;5.406;2023-04-01T00:04:36;99025.69;;;9.57;100.00
54042;BME280;41156;51.508;5.406;2023-04-01T00:07:38;99029.97;;;9.53;100.00
54042;BME280;41156;51.508;5.406;2023-04-01T00:10:39;99034.84;;;9.56;100.00
54042;BME280;41156;51.508;5.406;2023-04-01T00:13:40;99036.72;;;9.55;100.00
54042;BME280;41156;51.508;5.406;2023-04-01T00:16:41;99024.34;;;9.54;100.00
54042;BME280;41156;51.508;5.406;2023-04-01T00:19:41;99036.19;;;9.53;100.00
54042;BME280;41156;51.508;5.406;2023-04-01T00:22:42;99038.88;;;9.53;100.00
54042;BME280;41156;51.508;5.406;2023-04-01T00:25:44;99033.22;;;9.55;100.00
54042;BME280;41156;51.508;5.406;2023-04-01T00:28:46;99044.00;;;9.55;100.00
54042;BME280;41156;51.508;5.406;2023-04-01T00:31:47;99036.97;;;9.54;100.00
54042;BME280;41156;51.508;5.406;2023-04-01T00:34:51;99042.63;;;9.52;100.00
54042;BME280;41156;51.508;5.406;2023-04-01T00:37:52;99043.47;;;9.53;100.00
54042;BME280;41156;51.508;5.406;2023-04-01T00:40:57;99050.47;;;9.54;100.00
54042;BME280;41156;51.508;5.406;2023-04-01T00:44:22;99051.56;;;9.53;100.00
54042;BME280;41156;51.508;5.406;2023-04-01T00:47:24;99046.41;;;9.51;100.00
54042;BME280;41156;51.508;5.406;2023-04-01T00:50:27;99059.63;;;9.53;100.00
54042;BME280;41156;51.508;5.406;2023-04-01T00:53:30;99057.75;;;9.53;100.00
54042;BME280;41156;51.508;5.406;2023-04-01T00:56:46;99057.19;;;9.51;100.00
54042;BME280;41156;51.508;5.406;2023-04-01T00:59:52;99071.22;;;9.53;100.00
54042;BME280;41156;51.508;5.406;2023-04-01T01:02:54;99055.78;;;9.49;100.00
54042;BME280;41156;51.508;5.406;2023-04-01T01:06:37;99068.78;;;9.52;100.00
54042;BME280;41156;51.508;5.406;2023-04-01T01:16:30;99078.75;;;9.51;100.00
54042;BME280;41156;51.508;5.406;2023-04-01T01:33:13;99080.88;;;9.49;100.00
54042;BME280;41156;51.508;5.406;2023-04-01T01:36:16;99080.88;;;9.49;100.00
54042;BME280;41156;51.508;5.406;2023-04-01T01:39:19;99080.06;;;9.49;100.00
54042;BME280;41156;51.508;5.406;2023-04-01T01:42:22;99083.56;;;9.49;100.00
54042;BME280;41156;51.508;5.406;2023-04-01T01:45:26;99088.72;;;9.51;100.00
54042;BME280;41156;51.508;5.406;2023-04-01T01:48:28;99094.69;;;9.53;100.00
54042;BME280;41156;51.508;5.406;2023-04-01T01:51:29;99099.50;;;9.51;100.00
54042;BME280;41156;51.508;5.406;2023-04-01T01:54:30;99100.81;;;9.48;100.00
54042;BME280;41156;51.508;5.406;2023-04-01T01:57:36;99084.66;;;9.48;100.00
54042;BME280;41156;51.508;5.406;2023-04-01T02:00:39;99101.63;;;9.49;100.00
54042;BME280;41156;51.508;5.406;2023-04-01T02:03:41;99101.88;;;9.47;100.00
54042;BME280;41156;51.508;5.406;2023-04-01T02:06:53;99101.88;;;9.47;100.00
54042;BME280;41156;51.508;5.406;2023-04-01T02:09:56;99114.56;;;9.47;100.00
54042;BME280;41156;51.508;5.406;2023-04-01T02:13:00;99109.91;;;9.42;100.00
54042;BME280;41156;51.508;5.406;2023-04-01T02:16:06;99113.41;;;9.42;100.00
54042;BME280;41156;51.508;5.406;2023-04-01T02:19:10;99112.59;;;9.42;100.00
54042;BME280;41156;51.508;5.406;2023-04-01T02:22:14;99119.31;;;9.39;100.00
54042;BME280;41156;51.508;5.406;2023-04-01T02:25:24;99122.03;;;9.39;100.00
54042;BME280;41156;51.508;5.406;2023-04-01T02:28:26;99117.44;;;9.40;100.00
54042;BME280;41156;51.508;5.406;2023-04-01T02:31:28;99119.56;;;9.38;100.00
54042;BME280;41156;51.508;5.406;2023-04-01T02:34:29;99112.53;;;9.37;100.00
54042;BME280;41156;51.508;5.406;2023-04-01T02:37:29;99120.88;;;9.35;100.00
54042;BME280;41156;51.508;5.406;2023-04-01T02:40:29;99125.47;;;9.35;100.00
54042;BME280;41156;51.508;5.406;2023-04-01T02:43:30;99124.66;;;9.34;100.00
54042;BME280;41156;51.508;5.406;2023-04-01T02:46:30;99125.69;;;9.33;100.00
54042;BME280;41156;51.508;5.406;2023-04-01T02:49:30;99125.94;;;9.32;100.00
54042;BME280;41156;51.508;5.406;2023-04-01T02:52:31;99129.69;;;9.31;100.00
54042;BME280;41156;51.508;5.406;2023-04-01T02:55:32;99132.41;;;9.31;100.00
54042;BME280;41156;51.508;5.406;2023-04-01T02:58:32;99127.25;;;9.29;100.00
54042;BME280;41156;51.508;5.406;2023-04-01T03:01:33;99139.09;;;9.28;100.00
54042;BME280;41156;51.508;5.406;2023-04-01T03:04:33;99141.56;;;9.30;100.00
54042;BME280;41156;51.508;5.406;2023-04-01T03:07:33;99144.25;;;9.30;100.00
54042;BME280;41156;51.508;5.406;2023-04-01T03:10:34;99137.78;;;9.31;100.00
54042;BME280;41156;51.508;5.406;2023-04-01T03:13:34;99145.88;;;9.31;100.00
54042;BME280;41156;51.508;5.406;2023-04-01T03:16:34;99147.75;;;9.30;100.00
54042;BME280;41156;51.508;5.406;2023-04-01T03:19:35;99147.44;;;9.26;100.00
54042;BME280;41156;51.508;5.406;2023-04-01T03:22:35;99156.34;;;9.27;100.00
54042;BME280;41156;51.508;5.406;2023-04-01T03:25:35;99155.78;;;9.25;100.00
54042;BME280;41156;51.508;5.406;2023-04-01T03:28:36;99158.72;;;9.23;100.00
54042;BME280;41156;51.508;5.406;2023-04-01T03:31:36;99166.56;;;9.25;100.00
54042;BME280;41156;51.508;5.406;2023-04-01T03:34:36;99161.16;;;9.25;100.00
54042;BME280;41156;51.508;5.406;2023-04-01T03:37:37;99170.06;;;9.25;100.00
54042;BME280;41156;51.508;5.406;2023-04-01T03:40:42;99164.09;;;9.23;100.00
54042;BME280;41156;51.508;5.406;2023-04-01T03:43:42;99166.81;;;9.23;100.00
54042;BME280;41156;51.508;5.406;2023-04-01T03:46:42;99167.03;;;9.22;100.00
54042;BME280;41156;51.508;5.406;2023-04-01T03:49:43;99171.63;;;9.21;100.00
54042;BME280;41156;51.508;5.406;2023-04-01T03:52:43;99174.31;;;9.21;100.00
54042;BME280;41156;51.508;5.406;2023-04-01T03:55:43;99170.53;;;9.22;100.00
54042;BME280;41156;51.508;5.406;2023-04-01T03:58:44;99174.06;;;9.23;100.00
54042;BME280;41156;51.508;5.406;2023-04-01T04:01:46;99182.41;;;9.21;100.00
54042;BME280;41156;51.508;5.406;2023-04-01T04:04:47;99178.06;;;9.20;100.00
54042;BME280;41156;51.508;5.406;2023-04-01T04:07:47;99182.66;;;9.20;100.00
54042;BME280;41156;51.508;5.406;2023-04-01T04:10:54;99183.47;;;9.20;100.00
54042;BME280;41156;51.508;5.406;2023-04-01T04:13:55;99190.97;;;9.18;100.00
54042;BME280;41156;51.508;5.406;2023-04-01T04:16:55;99190.66;;;9.15;100.00
54042;BME280;41156;51.508;5.406;2023-04-01T04:19:55;99196.28;;;9.13;100.00
54042;BME280;41156;51.508;5.406;2023-04-01T04:22:55;99207.88;;;9.14;100.00
54042;BME280;41156;51.508;5.406;2023-04-01T04:25:58;99201.69;;;9.13;100.00
54042;BME280;41156;51.508;5.406;2023-04-01T04:28:59;99210.34;;;9.15;100.00
54042;BME280;41156;51.508;5.406;2023-04-01T04:32:00;99205.44;;;9.12;100.00
54042;BME280;41156;51.508;5.406;2023-04-01T04:35:00;99216.22;;;9.12;100.00
54042;BME280;41156;51.508;5.406;2023-04-01T04:38:00;99217.22;;;9.06;100.00
54042;BME280;41156;51.508;5.406;2023-04-01T04:41:01;99219.91;;;9.06;100.00
54042;BME280;41156;51.508;5.406;2023-04-01T04:44:01;99210.66;;;9.02;100.00
54042;BME280;41156;51.508;5.406;2023-04-01T04:47:02;99219.56;;;9.02;100.00
54042;BME280;41156;51.508;5.406;2023-04-01T04:50:02;99219.78;;;9.01;100.00
54042;BME280;41156;51.508;5.406;2023-04-01T04:53:03;99224.13;;;9.02;100.00
54042;BME280;41156;51.508;5.406;2023-04-01T04:56:03;99231.09;;;8.98;100.00
54042;BME280;41156;51.508;5.406;2023-04-01T04:59:03;99236.47;;;8.98;100.00
54042;BME280;41156;51.508;5.406;2023-04-01T05:02:04;99244.56;;;8.98;100.00
54042;BME280;41156;51.508;5.406;2023-04-01T05:05:04;99251.47;;;8.94;100.00
54042;BME280;41156;51.508;5.406;2023-04-01T05:08:05;99248.22;;;8.92;100.00
54042;BME280;41156;51.508;5.406;2023-04-01T05:11:09;99249.25;;;8.91;100.00
54042;BME280;41156;51.508;5.406;2023-04-01T05:14:14;99248.69;;;8.88;100.00
54042;BME280;41156;51.508;5.406;2023-04-01T05:17:15;99249.50;;;8.89;100.00
54042;BME280;41156;51.508;5.406;2023-04-01T05:20:16;99255.72;;;8.89;100.00
54042;BME280;41156;51.508;5.406;2023-04-01T05:23:17;99263.56;;;8.91;100.00
54042;BME280;41156;51.508;5.406;2023-04-01T05:26:17;99269.19;;;8.89;100.00
54042;BME280;41156;51.508;5.406;2023-04-01T05:29:17;99277.28;;;8.89;100.00
54042;BME280;41156;51.508;5.406;2023-04-01T05:32:18;99277.28;;;8.89;100.00
54042;BME280;41156;51.508;5.406;2023-04-01T05:35:18;99279.63;;;8.86;100.00
54042;BME280;41156;51.508;5.406;2023-04-01T05:38:18;99286.41;;;8.88;100.00
54042;BME280;41156;51.508;5.406;2023-04-01T05:41:19;99292.84;;;8.87;100.00
54042;BME280;41156;51.508;5.406;2023-04-01T05:44:19;99304.22;;;8.89;100.00
54042;BME280;41156;51.508;5.406;2023-04-01T05:47:19;99298.50;;;8.86;100.00
54042;BME280;41156;51.508;5.406;2023-04-01T05:50:20;99308.44;;;8.85;100.00
54042;BME280;41156;51.508;5.406;2023-04-01T05:53:20;99315.47;;;8.86;100.00
54042;BME280;41156;51.508;5.406;2023-04-01T05:56:20;99321.91;;;8.85;100.00
54042;BME280;41156;51.508;5.406;2023-04-01T05:59:21;99318.16;;;8.86;100.00
54042;BME280;41156;51.508;5.406;2023-04-01T06:02:21;99328.69;;;8.88;100.00
54042;BME280;41156;51.508;5.406;2023-04-01T06:05:23;99331.16;;;8.89;100.00
54042;BME280;41156;51.508;5.406;2023-04-01T06:08:25;99341.94;;;8.89;100.00
54042;BME280;41156;51.508;5.406;2023-04-01T06:11:35;99331.72;;;8.92;100.00
54042;BME280;41156;51.508;5.406;2023-04-01T06:21:12;99354.66;;;8.94;100.00
54042;BME280;41156;51.508;5.406;2023-04-01T06:30:46;99367.75;;;9.02;100.00
54042;BME280;41156;51.508;5.406;2023-04-01T06:37:32;99375.00;;;9.02;100.00
54042;BME280;41156;51.508;5.406;2023-04-01T06:41:06;99371.50;;;9.01;100.00
54042;BME280;41156;51.508;5.406;2023-04-01T06:44:16;99378.88;;;9.06;100.00
54042;BME280;41156;51.508;5.406;2023-04-01T06:56:59;99398.50;;;9.18;100.00
54042;BME280;41156;51.508;5.406;2023-04-01T07:00:03;99403.50;;;9.26;100.00
54042;BME280;41156;51.508;5.406;2023-04-01T07:09:56;99419.78;;;9.49;100.00
54042;BME280;41156;51.508;5.406;2023-04-01T07:13:04;99419.66;;;9.55;100.00
54042;BME280;41156;51.508;5.406;2023-04-01T07:19:24;99424.66;;;9.63;100.00
54042;BME280;41156;51.508;5.406;2023-04-01T07:22:38;99433.91;;;9.68;100.00
54042;BME280;41156;51.508;5.406;2023-04-01T07:25:43;99441.75;;;9.69;100.00
54042;BME280;41156;51.508;5.406;2023-04-01T07:28:44;99441.25;;;9.72;100.00
54042;BME280;41156;51.508;5.406;2023-04-01T07:41:58;99456.63;;;9.72;100.00
54042;BME280;41156;51.508;5.406;2023-04-01T07:51:40;99476.38;;;9.77;100.00
54042;BME280;41156;51.508;5.406;2023-04-01T07:55:02;99488.50;;;9.75;100.00
54042;BME280;41156;51.508;5.406;2023-04-01T08:01:36;99500.09;;;9.75;100.00
54042;BME280;41156;51.508;5.406;2023-04-01T08:04:42;99498.91;;;9.83;100.00
54042;BME280;41156;51.508;5.406;2023-04-01T08:21:24;99525.06;;;10.45;100.00
54042;BME280;41156;51.508;5.406;2023-04-01T08:24:41;99513.84;;;10.53;100.00
54042;BME280;41156;51.508;5.406;2023-04-01T08:27:53;99521.44;;;10.57;100.00
54042;BME280;41156;51.508;5.406;2023-04-01T08:34:04;99539.63;;;10.44;100.00
54042;BME280;41156;51.508;5.406;2023-04-01T08:37:14;99534.41;;;10.38;100.00
54042;BME280;41156;51.508;5.406;2023-04-01T08:40:45;99539.81;;;10.38;100.00
54042;BME280;41156;51.508;5.406;2023-04-01T08:44:16;99551.75;;;10.42;100.00
54042;BME280;41156;51.508;5.406;2023-04-01T09:00:54;99567.13;;;10.58;100.00
54042;BME280;41156;51.508;5.406;2023-04-01T09:11:33;99587.25;;;10.84;100.00
54042;BME280;41156;51.508;5.406;2023-04-01T09:34:40;99612.22;;;10.74;100.00
54042;BME280;41156;51.508;5.406;2023-04-01T09:37:26;99610.44;;;10.63;100.00
54042;BME280;41156;51.508;5.406;2023-04-01T09:47:13;99620.38;;;10.46;100.00
54042;BME280;41156;51.508;5.406;2023-04-01T10:06:57;99650.63;;;10.60;100.00
54042;BME280;41156;51.508;5.406;2023-04-01T10:24:27;99670.25;;;10.55;100.00
54042;BME280;41156;51.508;5.406;2023-04-01T10:31:35;99679.16;;;10.55;100.00
54042;BME280;41156;51.508;5.406;2023-04-01T10:35:07;99669.28;;;10.61;100.00
54042;BME280;41156;51.508;5.406;2023-04-01T10:38:41;99674.13;;;10.59;100.00
54042;BME280;41156;51.508;5.406;2023-04-01T10:51:41;99693.78;;;10.71;100.00
54042;BME280;41156;51.508;5.406;2023-04-01T10:54:49;99691.31;;;10.70;100.00
54042;BME280;41156;51.508;5.406;2023-04-01T11:32:02;99727.31;;;11.04;100.00
54042;BME280;41156;51.508;5.406;2023-04-01T11:38:48;99734.91;;;10.90;100.00
54042;BME280;41156;51.508;5.406;2023-04-01T11:41:56;99737.13;;;10.93;100.00
54042;BME280;41156;51.508;5.406;2023-04-01T11:45:36;99747.69;;;10.95;100.00
54042;BME280;41156;51.508;5.406;2023-04-01T11:52:08;99742.69;;;10.87;100.00
54042;BME280;41156;51.508;5.406;2023-04-01T11:55:44;99749.25;;;10.91;100.00
54042;BME280;41156;51.508;5.406;2023-04-01T12:15:36;99765.25;;;10.81;100.00
54042;BME280;41156;51.508;5.406;2023-04-01T12:19:01;99772.22;;;10.77;100.00
54042;BME280;41156;51.508;5.406;2023-04-01T12:22:21;99771.41;;;10.76;100.00
54042;BME280;41156;51.508;5.406;2023-04-01T12:26:06;99778.69;;;10.76;100.00
54042;BME280;41156;51.508;5.406;2023-04-01T12:29:42;99778.69;;;10.76;100.00
54042;BME280;41156;51.508;5.406;2023-04-01T12:32:57;99791.63;;;10.73;100.00
54042;BME280;41156;51.508;5.406;2023-04-01T12:36:23;99792.34;;;10.69;100.00
54042;BME280;41156;51.508;5.406;2023-04-01T12:39:51;99800.44;;;10.69;100.00
54042;BME280;41156;51.508;5.406;2023-04-01T13:03:25;99823.00;;;10.74;100.00
54042;BME280;41156;51.508;5.406;2023-04-01T13:06:48;99825.69;;;10.74;100.00
54042;BME280;41156;51.508;5.406;2023-04-01T13:16:48;99831.13;;;10.91;100.00
54042;BME280;41156;51.508;5.406;2023-04-01T13:26:44;99844.56;;;10.86;100.00
54042;BME280;41156;51.508;5.406;2023-04-01T13:33:17;99846.31;;;10.81;100.00
54042;BME280;41156;51.508;5.406;2023-04-01T13:42:54;99868.22;;;10.67;100.00
54042;BME280;41156;51.508;5.406;2023-04-01T13:46:06;99862.81;;;10.67;100.00
54042;BME280;41156;51.508;5.406;2023-04-01T13:56:45;99883.19;;;10.58;100.00
54042;BME280;41156;51.508;5.406;2023-04-01T14:00:52;99884.84;;;10.47;100.00
54042;BME280;41156;51.508;5.406;2023-04-01T14:03:30;99883.44;;;10.45;100.00
54042;BME280;41156;51.508;5.406;2023-04-01T14:09:50;99888.38;;;10.48;100.00
54042;BME280;41156;51.508;5.406;2023-04-01T14:13:23;99895.63;;;10.47;100.00
54042;BME280;41156;51.508;5.406;2023-04-01T14:29:58;99919.03;;;10.42;100.00
54042;BME280;41156;51.508;5.406;2023-04-01T14:33:11;99917.59;;;10.39;100.00
54042;BME280;41156;51.508;5.406;2023-04-01T14:36:46;99915.97;;;10.38;100.00
54042;BME280;41156;51.508;5.406;2023-04-01T14:40:27;99915.50;;;10.41;100.00
54042;BME280;41156;51.508;5.406;2023-04-01T14:43:47;99925.59;;;10.46;100.00
54042;BME280;41156;51.508;5.406;2023-04-01T14:50:14;99934.88;;;10.50;100.00
54042;BME280;41156;51.508;5.406;2023-04-01T14:53:27;99938.25;;;10.57;100.00
54042;BME280;41156;51.508;5.406;2023-04-01T14:56:41;99935.56;;;10.57;100.00
54042;BME280;41156;51.508;5.406;2023-04-01T14:59:51;99944.00;;;10.61;100.00
54042;BME280;41156;51.508;5.406;2023-04-01T15:03:08;99947.44;;;10.56;100.00
54042;BME280;41156;51.508;5.406;2023-04-01T15:16:54;99960.22;;;10.61;100.00
54042;BME280;41156;51.508;5.406;2023-04-01T15:20:18;99972.91;;;10.60;100.00
54042;BME280;41156;51.508;5.406;2023-04-01T15:23:46;99970.91;;;10.55;100.00
54042;BME280;41156;51.508;5.406;2023-04-01T15:27:09;99973.16;;;10.47;100.00
54042;BME280;41156;51.508;5.406;2023-04-01T15:39:57;99987.97;;;10.56;100.00
54042;BME280;41156;51.508;5.406;2023-04-01T15:43:27;99993.38;;;10.56;100.00
54042;BME280;41156;51.508;5.406;2023-04-01T15:46:44;99996.88;;;10.57;100.00
54042;BME280;41156;51.508;5.406;2023-04-01T15:49:54;99995.34;;;10.61;100.00
54042;BME280;41156;51.508;5.406;2023-04-01T15:53:19;100001.81;;;10.60;100.00
54042;BME280;41156;51.508;5.406;2023-04-01T16:06:15;100014.59;;;10.41;100.00
54042;BME280;41156;51.508;5.406;2023-04-01T16:13:36;100020.38;;;10.44;100.00
54042;BME280;41156;51.508;5.406;2023-04-01T16:16:53;100012.75;;;10.41;100.00
54042;BME280;41156;51.508;5.406;2023-04-01T16:23:20;100018.25;;;10.34;100.00
54042;BME280;41156;51.508;5.406;2023-04-01T16:30:01;100022.66;;;10.29;100.00
54042;BME280;41156;51.508;5.406;2023-04-01T16:36:40;100021.59;;;10.18;100.00
54042;BME280;41156;51.508;5.406;2023-04-01T16:56:28;100064.88;;;9.99;100.00
54042;BME280;41156;51.508;5.406;2023-04-01T17:06:31;100081.50;;;9.96;100.00
54042;BME280;41156;51.508;5.406;2023-04-01T17:20:42;100104.63;;;10.04;100.00
54042;BME280;41156;51.508;5.406;2023-04-01T17:23:48;100111.47;;;10.07;100.00
54042;BME280;41156;51.508;5.406;2023-04-01T17:30:39;100116.41;;;10.10;100.00
54042;BME280;41156;51.508;5.406;2023-04-01T17:34:04;100126.75;;;10.13;100.00
54042;BME280;41156;51.508;5.406;2023-04-01T17:37:29;100130.03;;;10.15;100.00
54042;BME280;41156;51.508;5.406;2023-04-01T17:40:39;100139.56;;;10.17;100.00
54042;BME280;41156;51.508;5.406;2023-04-01T18:03:18;100194.38;;;10.18;100.00
54042;BME280;41156;51.508;5.406;2023-04-01T18:16:51;100225.56;;;10.14;100.00
54042;BME280;41156;51.508;5.406;2023-04-01T18:23:58;100241.41;;;10.10;100.00
54042;BME280;41156;51.508;5.406;2023-04-01T18:27:11;100251.63;;;10.08;100.00
54042;BME280;41156;51.508;5.406;2023-04-01T18:30:21;100253.50;;;10.08;100.00
54042;BME280;41156;51.508;5.406;2023-04-01T18:36:47;100264.16;;;10.03;100.00
54042;BME280;41156;51.508;5.406;2023-04-01T18:39:53;100272.69;;;9.99;100.00
54042;BME280;41156;51.508;5.406;2023-04-01T18:43:00;100286.63;;;9.96;100.00
54042;BME280;41156;51.508;5.406;2023-04-01T18:46:20;100287.31;;;9.92;100.00
54042;BME280;41156;51.508;5.406;2023-04-01T18:52:58;100306.84;;;9.87;100.00
54042;BME280;41156;51.508;5.406;2023-04-01T18:56:09;100316.25;;;9.85;100.00
54042;BME280;41156;51.508;5.406;2023-04-01T18:59:20;100326.44;;;9.82;100.00
54042;BME280;41156;51.508;5.406;2023-04-01T19:02:44;100341.78;;;9.82;100.00
54042;BME280;41156;51.508;5.406;2023-04-01T19:05:47;100345.78;;;9.79;100.00
54042;BME280;41156;51.508;5.406;2023-04-01T19:08:51;100347.63;;;9.79;100.00
54042;BME280;41156;51.508;5.406;2023-04-01T19:18:42;100381.78;;;9.67;100.00
54042;BME280;41156;51.508;5.406;2023-04-01T19:21:58;100377.69;;;9.57;100.00
54042;BME280;41156;51.508;5.406;2023-04-01T19:25:22;100386.25;;;9.54;100.00
54042;BME280;41156;51.508;5.406;2023-04-01T19:35:42;100410.16;;;9.44;100.00
54042;BME280;41156;51.508;5.406;2023-04-01T19:39:09;100411.66;;;9.40;100.00
54042;BME280;41156;51.508;5.406;2023-04-01T19:42:41;100408.59;;;9.30;100.00
54042;BME280;41156;51.508;5.406;2023-04-01T19:49:23;100427.47;;;9.30;100.00
54042;BME280;41156;51.508;5.406;2023-04-01T19:52:36;100434.97;;;9.28;100.00
54042;BME280;41156;51.508;5.406;2023-04-01T19:55:44;100439.72;;;9.25;100.00
54042;BME280;41156;51.508;5.406;2023-04-01T19:59:04;100449.91;;;9.23;100.00
54042;BME280;41156;51.508;5.406;2023-04-01T20:09:34;100474.59;;;9.20;100.00
54042;BME280;41156;51.508;5.406;2023-04-01T20:12:47;100487.47;;;9.18;100.00
54042;BME280;41156;51.508;5.406;2023-04-01T20:16:01;100487.28;;;9.13;100.00
54042;BME280;41156;51.508;5.406;2023-04-01T20:19:03;100494.75;;;9.11;100.00
54042;BME280;41156;51.508;5.406;2023-04-01T20:22:10;100507.22;;;9.05;100.00
54042;BME280;41156;51.508;5.406;2023-04-01T20:25:20;100514.06;;;9.01;100.00
54042;BME280;41156;51.508;5.406;2023-04-01T20:28:32;100523.19;;;9.00;100.00
54042;BME280;41156;51.508;5.406;2023-04-01T20:31:52;100531.91;;;8.96;100.00
54042;BME280;41156;51.508;5.406;2023-04-01T20:35:22;100532.34;;;8.93;100.00
54042;BME280;41156;51.508;5.406;2023-04-01T20:39:04;100534.44;;;8.84;100.00
54042;BME280;41156;51.508;5.406;2023-04-01T21:08:34;100604.28;;;8.65;100.00
54042;BME280;41156;51.508;5.406;2023-04-01T21:18:54;100628.34;;;8.54;100.00
54042;BME280;41156;51.508;5.406;2023-04-01T21:32:39;100654.03;;;8.49;100.00
54042;BME280;41156;51.508;5.406;2023-04-01T21:39:32;100678.22;;;8.36;100.00
54042;BME280;41156;51.508;5.406;2023-04-01T21:42:46;100679.63;;;8.25;100.00
54042;BME280;41156;51.508;5.406;2023-04-01T21:57:10;100697.16;;;8.01;100.00
54042;BME280;41156;51.508;5.406;2023-04-01T22:03:51;100711.63;;;7.93;100.00
54042;BME280;41156;51.508;5.406;2023-04-01T22:07:21;100729.19;;;7.89;100.00
54042;BME280;41156;51.508;5.406;2023-04-01T22:10:41;100723.16;;;7.87;100.00
54042;BME280;41156;51.508;5.406;2023-04-01T22:13:55;100739.50;;;7.86;100.00
54042;BME280;41156;51.508;5.406;2023-04-01T22:18:13;100744.06;;;7.85;100.00
54042;BME280;41156;51.508;5.406;2023-04-01T22:20:59;100753.34;;;7.83;100.00
54042;BME280;41156;51.508;5.406;2023-04-01T22:24:33;100743.81;;;7.73;100.00
54042;BME280;41156;51.508;5.406;2023-04-01T22:27:46;100759.91;;;7.67;100.00
54042;BME280;41156;51.508;5.406;2023-04-01T22:30:52;100770.66;;;7.67;100.00
54042;BME280;41156;51.508;5.406;2023-04-01T22:34:02;100778.50;;;7.62;100.00
54042;BME280;41156;51.508;5.406;2023-04-01T22:41:08;100783.38;;;7.51;100.00
54042;BME280;41156;51.508;5.406;2023-04-01T22:44:17;100786.22;;;7.43;100.00
54042;BME280;41156;51.508;5.406;2023-04-01T22:50:56;100798.81;;;7.43;100.00
54042;BME280;41156;51.508;5.406;2023-04-01T23:00:22;100816.81;;;7.42;100.00
54042;BME280;41156;51.508;5.406;2023-04-01T23:03:31;100823.63;;;7.38;100.00
54042;BME280;41156;51.508;5.406;2023-04-01T23:06:38;100833.91;;;7.34;100.00
54042;BME280;41156;51.508;5.406;2023-04-01T23:09:41;100837.19;;;7.30;100.00
54042;BME280;41156;51.508;5.406;2023-04-01T23:12:42;100841.47;;;7.24;100.00
54042;BME280;41156;51.508;5.406;2023-04-01T23:15:43;100848.28;;;7.20;100.00
54042;BME280;41156;51.508;5.406;2023-04-01T23:22:20;100853.00;;;7.18;100.00
54042;BME280;41156;51.508;5.406;2023-04-01T23:28:55;100867.78;;;7.07;100.00
54042;BME280;41156;51.508;5.406;2023-04-01T23:31:58;100877.25;;;7.03;100.00
54042;BME280;41156;51.508;5.406;2023-04-01T23:34:59;100880.13;;;7.01;100.00
54042;BME280;41156;51.508;5.406;2023-04-01T23:38:00;100883.81;;;7.00;100.00
54042;BME280;41156;51.508;5.406;2023-04-01T23:41:00;100895.59;;;6.99;100.00
54042;BME280;41156;51.508;5.406;2023-04-01T23:44:09;100890.03;;;7.01;100.00
54042;BME280;41156;51.508;5.406;2023-04-01T23:47:24;100907.81;;;7.02;100.00
54042;BME280;41156;51.508;5.406;2023-04-01T23:50:25;100906.53;;;6.98;100.00
54042;BME280;41156;51.508;5.406;2023-04-01T23:53:30;100913.13;;;6.95;100.00
54042;BME280;41156;51.508;5.406;2023-04-01T23:56:37;100925.06;;;6.93;100.00
54042;BME280;41156;51.508;5.406;2023-04-01T23:59:38;100933.34;;;6.91;100.00
